sensor_id;sensor_type;location;lat;lon;timestamp;P1;durP1;ratioP1;P2;durP2;ratioP2
19645;SDS011;9971;52.446;13.452;2022-08-20T00:02:38;0.53;;;0.53;;
19645;SDS011;9971;52.446;13.452;2022-08-20T00:07:39;1.92;;;1.82;;
19645;SDS011;9971;52.446;13.452;2022-08-20T00:12:43;0.70;;;0.70;;
19645;SDS011;9971;52.446;13.452;2022-08-20T00:17:44;2.10;;;2.00;;
19645;SDS011;9971;52.446;13.452;2022-08-20T00:22:46;1.00;;;1.00;;
19645;SDS011;9971;52.446;13.452;2022-08-20T00:27:48;0.43;;;0.43;;
19645;SDS011;9971;52.446;13.452;2022-08-20T00:32:52;3.00;;;2.80;;
19645;SDS011;9971;52.446;13.452;2022-08-20T00:37:53;2.90;;;2.70;;
19645;SDS011;9971;52.446;13.452;2022-08-20T00:42:56;2.97;;;2.77;;
19645;SDS011;9971;52.446;13.452;2022-08-20T00:47:57;1.97;;;1.87;;
19645;SDS011;9971;52.446;13.452;2022-08-20T00:52:59;3.40;;;3.20;;
19645;SDS011;9971;52.446;13.452;2022-08-20T00:58:04;1.35;;;1.25;;
19645;SDS011;9971;52.446;13.452;2022-08-20T01:03:04;1.60;;;1.50;;
19645;SDS011;9971;52.446;13.452;2022-08-20T01:08:05;1.50;;;1.47;;
19645;SDS011;9971;52.446;13.452;2022-08-20T01:13:08;1.80;;;1.70;;
19645;SDS011;9971;52.446;13.452;2022-08-20T01:18:10;0.93;;;0.93;;
19645;SDS011;9971;52.446;13.452;2022-08-20T01:28:31;2.30;;;2.10;;
19645;SDS011;9971;52.446;13.452;2022-08-20T01:33:30;3.33;;;3.13;;
19645;SDS011;9971;52.446;13.452;2022-08-20T01:38:32;2.70;;;2.50;;
19645;SDS011;9971;52.446;13.452;2022-08-20T01:43:34;4.73;;;4.43;;
19645;SDS011;9971;52.446;13.452;2022-08-20T01:48:37;5.50;;;5.15;;
19645;SDS011;9971;52.446;13.452;2022-08-20T01:53:40;1.70;;;1.60;;
19645;SDS011;9971;52.446;13.452;2022-08-20T01:58:42;0.57;;;0.57;;
19645;SDS011;9971;52.446;13.452;2022-08-20T02:03:42;1.10;;;1.10;;
19645;SDS011;9971;52.446;13.452;2022-08-20T02:08:45;5.83;;;5.42;;
19645;SDS011;9971;52.446;13.452;2022-08-20T02:13:48;3.90;;;3.60;;
19645;SDS011;9971;52.446;13.452;2022-08-20T02:18:51;3.50;;;3.20;;
19645;SDS011;9971;52.446;13.452;2022-08-20T02:23:51;2.90;;;2.77;;
19645;SDS011;9971;52.446;13.452;2022-08-20T02:28:53;2.92;;;2.72;;
19645;SDS011;9971;52.446;13.452;2022-08-20T02:33:55;2.43;;;2.33;;
19645;SDS011;9971;52.446;13.452;2022-08-20T02:38:58;1.30;;;1.30;;
19645;SDS011;9971;52.446;13.452;2022-08-20T02:44:00;0.47;;;0.47;;
19645;SDS011;9971;52.446;13.452;2022-08-20T02:49:03;0.47;;;0.47;;
19645;SDS011;9971;52.446;13.452;2022-08-20T02:54:05;0.60;;;0.60;;
19645;SDS011;9971;52.446;13.452;2022-08-20T02:59:07;0.47;;;0.47;;
19645;SDS011;9971;52.446;13.452;2022-08-20T03:04:10;0.50;;;0.50;;
19645;SDS011;9971;52.446;13.452;2022-08-20T03:09:12;0.55;;;0.55;;
19645;SDS011;9971;52.446;13.452;2022-08-20T03:14:14;0.70;;;0.70;;
19645;SDS011;9971;52.446;13.452;2022-08-20T03:19:17;0.50;;;0.50;;
19645;SDS011;9971;52.446;13.452;2022-08-20T03:24:19;0.60;;;0.60;;
19645;SDS011;9971;52.446;13.452;2022-08-20T03:29:21;0.60;;;0.60;;
19645;SDS011;9971;52.446;13.452;2022-08-20T03:34:24;0.70;;;0.70;;
19645;SDS011;9971;52.446;13.452;2022-08-20T03:39:26;0.62;;;0.62;;
19645;SDS011;9971;52.446;13.452;2022-08-20T03:44:29;0.62;;;0.62;;
19645;SDS011;9971;52.446;13.452;2022-08-20T03:49:31;2.30;;;2.20;;
19645;SDS011;9971;52.446;13.452;2022-08-20T03:54:33;2.33;;;2.15;;
19645;SDS011;9971;52.446;13.452;2022-08-20T03:59:36;0.73;;;0.73;;
19645;SDS011;9971;52.446;13.452;2022-08-20T04:04:39;1.10;;;1.10;;
19645;SDS011;9971;52.446;13.452;2022-08-20T04:09:40;2.03;;;1.83;;
19645;SDS011;9971;52.446;13.452;2022-08-20T04:14:42;0.82;;;0.82;;
19645;SDS011;9971;52.446;13.452;2022-08-20T04:19:44;0.70;;;0.70;;
19645;SDS011;9971;52.446;13.452;2022-08-20T04:24:46;0.80;;;0.80;;
19645;SDS011;9971;52.446;13.452;2022-08-20T04:29:49;0.80;;;0.80;;
19645;SDS011;9971;52.446;13.452;2022-08-20T04:34:51;0.60;;;0.60;;
19645;SDS011;9971;52.446;13.452;2022-08-20T04:39:54;0.50;;;0.50;;
19645;SDS011;9971;52.446;13.452;2022-08-20T04:45:03;0.90;;;0.90;;
19645;SDS011;9971;52.446;13.452;2022-08-20T04:50:06;5.30;;;4.90;;
19645;SDS011;9971;52.446;13.452;2022-08-20T04:55:07;3.92;;;3.72;;
19645;SDS011;9971;52.446;13.452;2022-08-20T05:00:11;1.90;;;1.80;;
19645;SDS011;9971;52.446;13.452;2022-08-20T05:05:11;4.33;;;4.03;;
19645;SDS011;9971;52.446;13.452;2022-08-20T05:10:14;7.45;;;6.80;;
19645;SDS011;9971;52.446;13.452;2022-08-20T05:15:15;4.40;;;4.00;;
19645;SDS011;9971;52.446;13.452;2022-08-20T05:20:18;3.08;;;2.87;;
19645;SDS011;9971;52.446;13.452;2022-08-20T05:25:20;4.08;;;3.77;;
19645;SDS011;9971;52.446;13.452;2022-08-20T05:30:22;2.15;;;2.05;;
19645;SDS011;9971;52.446;13.452;2022-08-20T05:35:25;3.55;;;3.35;;
19645;SDS011;9971;52.446;13.452;2022-08-20T05:40:27;1.10;;;1.10;;
19645;SDS011;9971;52.446;13.452;2022-08-20T05:45:29;0.90;;;0.90;;
19645;SDS011;9971;52.446;13.452;2022-08-20T05:50:31;0.90;;;0.90;;
19645;SDS011;9971;52.446;13.452;2022-08-20T05:55:34;1.10;;;1.10;;
19645;SDS011;9971;52.446;13.452;2022-08-20T06:00:35;1.67;;;1.57;;
19645;SDS011;9971;52.446;13.452;2022-08-20T06:05:38;0.60;;;0.60;;
19645;SDS011;9971;52.446;13.452;2022-08-20T06:10:40;6.87;;;6.30;;
19645;SDS011;9971;52.446;13.452;2022-08-20T06:15:42;1.67;;;1.57;;
19645;SDS011;9971;52.446;13.452;2022-08-20T06:20:44;0.70;;;0.70;;
19645;SDS011;9971;52.446;13.452;2022-08-20T06:25:47;0.70;;;0.70;;
19645;SDS011;9971;52.446;13.452;2022-08-20T06:30:49;2.53;;;2.37;;
19645;SDS011;9971;52.446;13.452;2022-08-20T06:35:51;0.95;;;0.95;;
19645;SDS011;9971;52.446;13.452;2022-08-20T06:40:54;1.20;;;1.10;;
19645;SDS011;9971;52.446;13.452;2022-08-20T06:45:56;0.85;;;0.85;;
19645;SDS011;9971;52.446;13.452;2022-08-20T06:50:59;0.50;;;0.50;;
19645;SDS011;9971;52.446;13.452;2022-08-20T06:56:01;0.90;;;0.90;;
19645;SDS011;9971;52.446;13.452;2022-08-20T07:01:03;0.50;;;0.50;;
19645;SDS011;9971;52.446;13.452;2022-08-20T07:06:05;0.60;;;0.60;;
19645;SDS011;9971;52.446;13.452;2022-08-20T07:11:07;2.13;;;2.03;;
19645;SDS011;9971;52.446;13.452;2022-08-20T07:16:09;1.05;;;1.05;;
19645;SDS011;9971;52.446;13.452;2022-08-20T07:21:12;3.42;;;3.12;;
19645;SDS011;9971;52.446;13.452;2022-08-20T07:26:14;1.20;;;1.20;;
19645;SDS011;9971;52.446;13.452;2022-08-20T07:31:16;0.90;;;0.90;;
19645;SDS011;9971;52.446;13.452;2022-08-20T07:36:24;1.40;;;1.30;;
19645;SDS011;9971;52.446;13.452;2022-08-20T07:41:26;0.33;;;0.33;;
19645;SDS011;9971;52.446;13.452;2022-08-20T07:46:29;0.70;;;0.70;;
19645;SDS011;9971;52.446;13.452;2022-08-20T07:51:31;2.20;;;2.00;;
19645;SDS011;9971;52.446;13.452;2022-08-20T07:56:34;1.20;;;1.10;;
19645;SDS011;9971;52.446;13.452;2022-08-20T08:01:36;1.20;;;1.20;;
19645;SDS011;9971;52.446;13.452;2022-08-20T08:06:38;0.70;;;0.70;;
19645;SDS011;9971;52.446;13.452;2022-08-20T08:11:43;1.82;;;1.72;;
19645;SDS011;9971;52.446;13.452;2022-08-20T08:16:43;2.50;;;2.30;;
19645;SDS011;9971;52.446;13.452;2022-08-20T08:21:46;1.83;;;1.73;;
19645;SDS011;9971;52.446;13.452;2022-08-20T08:26:48;1.07;;;1.07;;
19645;SDS011;9971;52.446;13.452;2022-08-20T08:31:50;0.70;;;0.70;;
19645;SDS011;9971;52.446;13.452;2022-08-20T08:36:53;0.45;;;0.45;;
19645;SDS011;9971;52.446;13.452;2022-08-20T08:41:55;1.22;;;1.22;;
19645;SDS011;9971;52.446;13.452;2022-08-20T08:47:00;3.53;;;3.23;;
19645;SDS011;9971;52.446;13.452;2022-08-20T08:52:03;3.13;;;2.93;;
19645;SDS011;9971;52.446;13.452;2022-08-20T08:57:04;1.57;;;1.47;;
19645;SDS011;9971;52.446;13.452;2022-08-20T09:02:06;0.80;;;0.80;;
19645;SDS011;9971;52.446;13.452;2022-08-20T09:07:08;9.03;;;8.33;;
19645;SDS011;9971;52.446;13.452;2022-08-20T09:12:11;5.95;;;5.45;;
19645;SDS011;9971;52.446;13.452;2022-08-20T09:17:14;2.50;;;2.40;;
19645;SDS011;9971;52.446;13.452;2022-08-20T09:22:17;1.70;;;1.60;;
19645;SDS011;9971;52.446;13.452;2022-08-20T09:27:18;6.13;;;5.53;;
19645;SDS011;9971;52.446;13.452;2022-08-20T09:32:20;3.47;;;3.20;;
19645;SDS011;9971;52.446;13.452;2022-08-20T09:37:23;0.90;;;0.90;;
19645;SDS011;9971;52.446;13.452;2022-08-20T09:42:27;4.23;;;3.93;;
19645;SDS011;9971;52.446;13.452;2022-08-20T09:47:27;5.37;;;4.97;;
19645;SDS011;9971;52.446;13.452;2022-08-20T09:52:30;4.42;;;4.10;;
19645;SDS011;9971;52.446;13.452;2022-08-20T09:57:31;3.17;;;2.90;;
19645;SDS011;9971;52.446;13.452;2022-08-20T10:02:34;4.42;;;4.12;;
19645;SDS011;9971;52.446;13.452;2022-08-20T10:07:36;6.17;;;5.65;;
19645;SDS011;9971;52.446;13.452;2022-08-20T10:12:38;2.22;;;2.12;;
19645;SDS011;9971;52.446;13.452;2022-08-20T10:17:41;11.00;;;10.00;;
19645;SDS011;9971;52.446;13.452;2022-08-20T10:22:42;4.90;;;4.60;;
19645;SDS011;9971;52.446;13.452;2022-08-20T10:27:44;6.67;;;6.17;;
19645;SDS011;9971;52.446;13.452;2022-08-20T10:32:46;6.45;;;5.95;;
19645;SDS011;9971;52.446;13.452;2022-08-20T10:37:48;4.33;;;4.03;;
19645;SDS011;9971;52.446;13.452;2022-08-20T10:42:51;5.78;;;5.22;;
19645;SDS011;9971;52.446;13.452;2022-08-20T10:47:53;7.33;;;6.75;;
19645;SDS011;9971;52.446;13.452;2022-08-20T10:52:56;5.12;;;4.80;;
19645;SDS011;9971;52.446;13.452;2022-08-20T10:57:58;4.25;;;3.92;;
19645;SDS011;9971;52.446;13.452;2022-08-20T11:03:00;5.28;;;4.87;;
19645;SDS011;9971;52.446;13.452;2022-08-20T11:08:02;6.20;;;5.35;;
19645;SDS011;9971;52.446;13.452;2022-08-20T11:13:05;3.80;;;3.50;;
19645;SDS011;9971;52.446;13.452;2022-08-20T11:18:07;4.90;;;4.50;;
19645;SDS011;9971;52.446;13.452;2022-08-20T11:23:09;5.22;;;4.72;;
19645;SDS011;9971;52.446;13.452;2022-08-20T11:28:11;3.30;;;3.08;;
19645;SDS011;9971;52.446;13.452;2022-08-20T11:33:13;3.25;;;3.05;;
19645;SDS011;9971;52.446;13.452;2022-08-20T11:38:17;1.50;;;1.40;;
19645;SDS011;9971;52.446;13.452;2022-08-20T11:43:18;2.73;;;2.53;;
19645;SDS011;9971;52.446;13.452;2022-08-20T11:48:20;1.52;;;1.42;;
19645;SDS011;9971;52.446;13.452;2022-08-20T11:53:22;1.00;;;1.00;;
19645;SDS011;9971;52.446;13.452;2022-08-20T11:58:25;3.17;;;2.98;;
19645;SDS011;9971;52.446;13.452;2022-08-20T12:03:27;1.50;;;1.40;;
19645;SDS011;9971;52.446;13.452;2022-08-20T12:08:29;0.90;;;0.90;;
19645;SDS011;9971;52.446;13.452;2022-08-20T12:13:33;2.25;;;2.10;;
19645;SDS011;9971;52.446;13.452;2022-08-20T12:18:34;2.47;;;2.25;;
19645;SDS011;9971;52.446;13.452;2022-08-20T12:23:37;4.45;;;4.08;;
19645;SDS011;9971;52.446;13.452;2022-08-20T12:28:39;2.23;;;2.00;;
19645;SDS011;9971;52.446;13.452;2022-08-20T12:33:42;2.83;;;2.62;;
19645;SDS011;9971;52.446;13.452;2022-08-20T12:38:45;1.50;;;1.40;;
19645;SDS011;9971;52.446;13.452;2022-08-20T12:43:47;0.20;;;0.20;;
19645;SDS011;9971;52.446;13.452;2022-08-20T12:48:50;0.40;;;0.40;;
19645;SDS011;9971;52.446;13.452;2022-08-20T12:53:52;1.20;;;1.15;;
19645;SDS011;9971;52.446;13.452;2022-08-20T12:58:55;0.60;;;0.60;;
19645;SDS011;9971;52.446;13.452;2022-08-20T13:03:57;0.72;;;0.72;;
19645;SDS011;9971;52.446;13.452;2022-08-20T13:09:00;1.98;;;1.87;;
19645;SDS011;9971;52.446;13.452;2022-08-20T13:14:02;3.27;;;2.98;;
19645;SDS011;9971;52.446;13.452;2022-08-20T13:19:04;2.08;;;1.98;;
19645;SDS011;9971;52.446;13.452;2022-08-20T13:24:07;0.68;;;0.68;;
19645;SDS011;9971;52.446;13.452;2022-08-20T13:29:09;0.37;;;0.37;;
19645;SDS011;9971;52.446;13.452;2022-08-20T13:34:11;0.47;;;0.47;;
19645;SDS011;9971;52.446;13.452;2022-08-20T13:39:13;0.53;;;0.53;;
19645;SDS011;9971;52.446;13.452;2022-08-20T13:44:17;2.27;;;2.17;;
19645;SDS011;9971;52.446;13.452;2022-08-20T13:49:19;0.60;;;0.60;;
19645;SDS011;9971;52.446;13.452;2022-08-20T13:54:21;0.93;;;0.93;;
19645;SDS011;9971;52.446;13.452;2022-08-20T13:59:24;0.30;;;0.30;;
19645;SDS011;9971;52.446;13.452;2022-08-20T14:04:28;0.47;;;0.47;;
19645;SDS011;9971;52.446;13.452;2022-08-20T14:09:31;0.50;;;0.50;;
19645;SDS011;9971;52.446;13.452;2022-08-20T14:14:34;0.50;;;0.50;;
19645;SDS011;9971;52.446;13.452;2022-08-20T14:19:36;0.60;;;0.60;;
19645;SDS011;9971;52.446;13.452;2022-08-20T14:24:40;0.60;;;0.60;;
19645;SDS011;9971;52.446;13.452;2022-08-20T14:29:43;0.50;;;0.50;;
19645;SDS011;9971;52.446;13.452;2022-08-20T14:34:44;0.50;;;0.50;;
19645;SDS011;9971;52.446;13.452;2022-08-20T14:39:48;0.50;;;0.50;;
19645;SDS011;9971;52.446;13.452;2022-08-20T14:44:49;0.63;;;0.63;;
19645;SDS011;9971;52.446;13.452;2022-08-20T14:49:51;0.93;;;0.63;;
19645;SDS011;9971;52.446;13.452;2022-08-20T14:54:53;0.50;;;0.50;;
19645;SDS011;9971;52.446;13.452;2022-08-20T14:59:55;0.53;;;0.53;;
19645;SDS011;9971;52.446;13.452;2022-08-20T15:04:58;0.50;;;0.50;;
19645;SDS011;9971;52.446;13.452;2022-08-20T15:10:00;0.65;;;0.65;;
19645;SDS011;9971;52.446;13.452;2022-08-20T15:15:03;0.50;;;0.50;;
19645;SDS011;9971;52.446;13.452;2022-08-20T15:20:05;0.60;;;0.60;;
19645;SDS011;9971;52.446;13.452;2022-08-20T15:25:10;0.50;;;0.50;;
19645;SDS011;9971;52.446;13.452;2022-08-20T15:30:14;1.33;;;0.70;;
19645;SDS011;9971;52.446;13.452;2022-08-20T15:35:14;0.68;;;0.68;;
19645;SDS011;9971;52.446;13.452;2022-08-20T15:40:17;0.50;;;0.50;;
19645;SDS011;9971;52.446;13.452;2022-08-20T15:45:18;0.60;;;0.60;;
19645;SDS011;9971;52.446;13.452;2022-08-20T15:50:32;0.77;;;0.77;;
19645;SDS011;9971;52.446;13.452;2022-08-20T15:55:42;0.53;;;0.53;;
19645;SDS011;9971;52.446;13.452;2022-08-20T16:00:48;0.83;;;0.83;;
19645;SDS011;9971;52.446;13.452;2022-08-20T16:06:05;0.68;;;0.68;;
19645;SDS011;9971;52.446;13.452;2022-08-20T16:16:40;0.50;;;0.50;;
19645;SDS011;9971;52.446;13.452;2022-08-20T16:21:39;0.40;;;0.40;;
19645;SDS011;9971;52.446;13.452;2022-08-20T16:26:48;0.60;;;0.60;;
19645;SDS011;9971;52.446;13.452;2022-08-20T16:31:50;0.60;;;0.60;;
19645;SDS011;9971;52.446;13.452;2022-08-20T16:36:53;0.60;;;0.60;;
19645;SDS011;9971;52.446;13.452;2022-08-20T16:41:55;0.50;;;0.50;;
19645;SDS011;9971;52.446;13.452;2022-08-20T16:47:02;0.42;;;0.42;;
19645;SDS011;9971;52.446;13.452;2022-08-20T16:52:16;0.70;;;0.70;;
19645;SDS011;9971;52.446;13.452;2022-08-20T16:57:18;0.80;;;0.80;;
19645;SDS011;9971;52.446;13.452;2022-08-20T17:02:21;0.77;;;0.77;;
19645;SDS011;9971;52.446;13.452;2022-08-20T17:07:26;0.80;;;0.80;;
19645;SDS011;9971;52.446;13.452;2022-08-20T17:12:26;0.80;;;0.80;;
19645;SDS011;9971;52.446;13.452;2022-08-20T17:17:31;0.80;;;0.80;;
19645;SDS011;9971;52.446;13.452;2022-08-20T17:22:38;0.63;;;0.63;;
19645;SDS011;9971;52.446;13.452;2022-08-20T17:27:35;0.87;;;0.87;;
19645;SDS011;9971;52.446;13.452;2022-08-20T17:32:44;0.70;;;0.70;;
19645;SDS011;9971;52.446;13.452;2022-08-20T17:37:38;0.60;;;0.60;;
19645;SDS011;9971;52.446;13.452;2022-08-20T17:42:45;0.80;;;0.80;;
19645;SDS011;9971;52.446;13.452;2022-08-20T17:47:47;0.70;;;0.70;;
19645;SDS011;9971;52.446;13.452;2022-08-20T17:52:51;0.63;;;0.63;;
19645;SDS011;9971;52.446;13.452;2022-08-20T17:57:53;0.73;;;0.73;;
19645;SDS011;9971;52.446;13.452;2022-08-20T18:03:00;0.50;;;0.50;;
19645;SDS011;9971;52.446;13.452;2022-08-20T18:08:04;0.70;;;0.70;;
19645;SDS011;9971;52.446;13.452;2022-08-20T18:13:14;0.63;;;0.63;;
19645;SDS011;9971;52.446;13.452;2022-08-20T18:18:20;0.57;;;0.57;;
19645;SDS011;9971;52.446;13.452;2022-08-20T18:23:25;0.43;;;0.43;;
19645;SDS011;9971;52.446;13.452;2022-08-20T18:28:33;0.90;;;0.90;;
19645;SDS011;9971;52.446;13.452;2022-08-20T18:33:38;2.60;;;2.40;;
19645;SDS011;9971;52.446;13.452;2022-08-20T18:38:38;2.10;;;2.00;;
19645;SDS011;9971;52.446;13.452;2022-08-20T18:43:40;1.10;;;1.10;;
19645;SDS011;9971;52.446;13.452;2022-08-20T18:53:49;0.60;;;0.60;;
19645;SDS011;9971;52.446;13.452;2022-08-20T18:58:58;0.60;;;0.60;;
19645;SDS011;9971;52.446;13.452;2022-08-20T19:03:58;0.68;;;0.68;;
19645;SDS011;9971;52.446;13.452;2022-08-20T19:09:05;0.60;;;0.60;;
19645;SDS011;9971;52.446;13.452;2022-08-20T19:19:42;1.10;;;1.10;;
19645;SDS011;9971;52.446;13.452;2022-08-20T19:24:44;1.00;;;1.00;;
19645;SDS011;9971;52.446;13.452;2022-08-20T19:29:46;0.70;;;0.70;;
19645;SDS011;9971;52.446;13.452;2022-08-20T19:34:52;0.87;;;0.87;;
19645;SDS011;9971;52.446;13.452;2022-08-20T19:39:53;0.90;;;0.90;;
19645;SDS011;9971;52.446;13.452;2022-08-20T19:45:00;0.83;;;0.83;;
19645;SDS011;9971;52.446;13.452;2022-08-20T19:55:25;0.60;;;0.60;;
19645;SDS011;9971;52.446;13.452;2022-08-20T20:00:27;0.50;;;0.50;;
19645;SDS011;9971;52.446;13.452;2022-08-20T20:05:27;0.43;;;0.43;;
19645;SDS011;9971;52.446;13.452;2022-08-20T20:10:31;0.60;;;0.60;;
19645;SDS011;9971;52.446;13.452;2022-08-20T20:15:31;0.70;;;0.70;;
19645;SDS011;9971;52.446;13.452;2022-08-20T20:20:35;0.60;;;0.60;;
19645;SDS011;9971;52.446;13.452;2022-08-20T20:25:37;0.60;;;0.60;;
19645;SDS011;9971;52.446;13.452;2022-08-20T20:30:38;0.50;;;0.50;;
19645;SDS011;9971;52.446;13.452;2022-08-20T20:35:40;0.37;;;0.37;;
19645;SDS011;9971;52.446;13.452;2022-08-20T20:40:43;0.60;;;0.60;;
19645;SDS011;9971;52.446;13.452;2022-08-20T20:45:53;0.57;;;0.57;;
19645;SDS011;9971;52.446;13.452;2022-08-20T20:50:49;0.50;;;0.50;;
19645;SDS011;9971;52.446;13.452;2022-08-20T20:55:53;0.60;;;0.60;;
19645;SDS011;9971;52.446;13.452;2022-08-20T21:00:53;0.50;;;0.50;;
19645;SDS011;9971;52.446;13.452;2022-08-20T21:05:56;0.60;;;0.60;;
19645;SDS011;9971;52.446;13.452;2022-08-20T21:10:58;0.60;;;0.60;;
19645;SDS011;9971;52.446;13.452;2022-08-20T21:16:01;0.40;;;0.40;;
19645;SDS011;9971;52.446;13.452;2022-08-20T21:21:04;0.60;;;0.60;;
19645;SDS011;9971;52.446;13.452;2022-08-20T21:26:06;0.50;;;0.50;;
19645;SDS011;9971;52.446;13.452;2022-08-20T21:31:08;0.50;;;0.50;;
19645;SDS011;9971;52.446;13.452;2022-08-20T21:36:10;0.60;;;0.60;;
19645;SDS011;9971;52.446;13.452;2022-08-20T21:41:13;0.60;;;0.60;;
19645;SDS011;9971;52.446;13.452;2022-08-20T21:46:15;0.57;;;0.57;;
19645;SDS011;9971;52.446;13.452;2022-08-20T21:51:17;0.50;;;0.50;;
19645;SDS011;9971;52.446;13.452;2022-08-20T21:56:19;0.50;;;0.50;;
19645;SDS011;9971;52.446;13.452;2022-08-20T22:01:22;0.60;;;0.60;;
19645;SDS011;9971;52.446;13.452;2022-08-20T22:06:24;0.50;;;0.50;;
19645;SDS011;9971;52.446;13.452;2022-08-20T22:11:26;0.40;;;0.40;;
19645;SDS011;9971;52.446;13.452;2022-08-20T22:16:28;0.50;;;0.50;;
19645;SDS011;9971;52.446;13.452;2022-08-20T22:21:31;0.30;;;0.30;;
19645;SDS011;9971;52.446;13.452;2022-08-20T22:26:34;0.77;;;0.50;;
19645;SDS011;9971;52.446;13.452;2022-08-20T22:31:36;0.67;;;0.50;;
19645;SDS011;9971;52.446;13.452;2022-08-20T22:36:37;0.50;;;0.50;;
19645;SDS011;9971;52.446;13.452;2022-08-20T22:41:39;0.70;;;0.70;;
19645;SDS011;9971;52.446;13.452;2022-08-20T22:46:41;0.60;;;0.60;;
19645;SDS011;9971;52.446;13.452;2022-08-20T22:51:43;0.67;;;0.67;;
19645;SDS011;9971;52.446;13.452;2022-08-20T22:56:45;0.70;;;0.70;;
19645;SDS011;9971;52.446;13.452;2022-08-20T23:01:48;0.70;;;0.70;;
19645;SDS011;9971;52.446;13.452;2022-08-20T23:06:50;0.47;;;0.47;;
19645;SDS011;9971;52.446;13.452;2022-08-20T23:11:52;0.77;;;0.77;;
19645;SDS011;9971;52.446;13.452;2022-08-20T23:16:58;0.40;;;0.40;;
19645;SDS011;9971;52.446;13.452;2022-08-20T23:21:59;0.65;;;0.65;;
19645;SDS011;9971;52.446;13.452;2022-08-20T23:27:03;0.40;;;0.40;;
19645;SDS011;9971;52.446;13.452;2022-08-20T23:32:04;0.50;;;0.50;;
19645;SDS011;9971;52.446;13.452;2022-08-20T23:37:06;0.25;;;0.25;;
19645;SDS011;9971;52.446;13.452;2022-08-20T23:42:08;0.40;;;0.40;;
19645;SDS011;9971;52.446;13.452;2022-08-20T23:47:11;1.17;;;0.45;;
19645;SDS011;9971;52.446;13.452;2022-08-20T23:52:13;0.20;;;0.20;;
19645;SDS011;9971;52.446;13.452;2022-08-20T23:57:15;0.47;;;0.40;;
